createdAt,value
2019-05-30T01:50:02.443Z,6.43
2019-05-30T02:22:10.063Z,6.10
2019-05-30T03:38:15.486Z,6.97
2019-05-30T10:15:12.987Z,1.90
2019-05-30T10:18:01.215Z,1.80
2019-05-30T10:20:51.926Z,1.30
2019-05-30T10:23:40.950Z,1.63
2019-05-30T10:26:30.082Z,2.50
2019-05-30T10:29:18.979Z,2.43
2019-05-30T10:32:08.655Z,2.20
2019-05-30T10:35:00.591Z,2.60
2019-05-30T10:37:50.776Z,3.03
2019-05-30T10:40:39.200Z,2.40
2019-05-30T10:43:27.942Z,2.43
2019-05-30T10:46:17.364Z,2.40
2019-05-30T10:49:06.277Z,2.27
2019-05-30T10:51:58.000Z,2.30
2019-05-30T10:54:45.033Z,1.93
2019-05-30T10:57:35.457Z,1.70
2019-05-30T11:00:27.938Z,2.17
2019-05-30T11:03:16.147Z,2.10
2019-05-30T11:06:15.657Z,3.30
2019-05-30T11:09:06.308Z,2.27
2019-05-30T11:11:55.191Z,2.43
2019-05-30T11:14:44.135Z,2.67
2019-05-30T11:17:32.386Z,2.80
2019-05-30T11:20:21.120Z,2.80
2019-05-30T11:23:09.585Z,2.20
2019-05-30T11:25:59.283Z,2.63
2019-05-30T11:28:48.570Z,2.40
2019-05-30T11:31:38.364Z,2.60
2019-05-30T11:34:27.029Z,2.70
2019-05-30T11:37:18.586Z,2.07
2019-05-30T11:40:07.152Z,2.60
2019-05-30T11:42:57.425Z,2.33
2019-05-30T11:45:47.538Z,2.17
2019-05-30T11:48:36.642Z,2.00
2019-05-30T11:51:25.247Z,2.20
2019-05-30T11:54:14.291Z,2.83
2019-05-30T11:57:03.075Z,2.30
2019-05-30T11:59:52.122Z,2.10
2019-05-30T12:02:40.247Z,1.70
2019-05-30T12:05:29.803Z,2.27
2019-05-30T12:08:17.979Z,2.30
2019-05-30T12:11:07.116Z,2.50
2019-05-30T12:13:57.324Z,2.17
2019-05-30T12:16:47.142Z,2.03
2019-05-30T12:19:35.757Z,2.23
2019-05-30T12:22:24.077Z,2.30
2019-05-30T12:25:13.558Z,2.77
2019-05-30T12:28:04.211Z,2.30
2019-05-30T12:30:56.863Z,1.97
2019-05-30T12:33:43.331Z,2.33
2019-05-30T12:36:32.742Z,2.40
2019-05-30T12:39:22.007Z,2.57
2019-05-30T12:42:10.442Z,2.00
2019-05-30T12:45:05.539Z,2.23
2019-05-30T12:47:50.718Z,2.27
2019-05-30T12:50:38.958Z,2.53
2019-05-30T12:53:27.104Z,2.57
2019-05-30T12:56:16.450Z,1.80
2019-05-30T12:59:05.417Z,2.00
2019-05-30T13:01:54.748Z,1.97
2019-05-30T13:04:43.698Z,2.17
2019-05-30T13:07:31.649Z,2.33
2019-05-30T13:10:20.658Z,2.03
2019-05-30T13:13:10.175Z,2.20
2019-05-30T13:16:01.058Z,2.07
2019-05-30T13:18:49.602Z,1.80
2019-05-30T13:21:39.274Z,1.80
2019-05-30T13:24:28.584Z,3.07
2019-05-30T13:27:16.667Z,2.10
2019-05-30T13:30:13.202Z,2.03
2019-05-30T13:33:03.057Z,1.60
2019-05-30T13:35:52.110Z,1.87
2019-05-30T13:38:40.548Z,2.03
2019-05-30T13:41:30.293Z,2.20
2019-05-30T13:44:19.192Z,2.27
2019-05-30T13:47:09.117Z,2.13
2019-05-30T13:49:57.111Z,1.60
2019-05-30T13:52:45.842Z,1.73
2019-05-30T13:55:34.494Z,1.80
2019-05-30T13:58:23.813Z,1.80
2019-05-30T14:01:14.174Z,1.90
2019-05-30T14:04:06.298Z,1.93
2019-05-30T14:06:54.884Z,1.67
2019-05-30T14:09:44.455Z,1.87
2019-05-30T14:12:33.646Z,2.07
2019-05-30T14:15:22.269Z,2.20
2019-05-30T14:18:11.693Z,2.40
2019-05-30T14:21:01.751Z,1.97
2019-05-30T14:23:51.165Z,2.07
2019-05-30T14:26:39.995Z,2.07
2019-05-30T14:29:28.971Z,1.83
2019-05-30T14:32:18.582Z,2.03
2019-05-30T14:35:08.552Z,1.60
2019-05-30T14:37:57.303Z,1.90
2019-05-30T14:40:46.030Z,2.20
2019-05-30T14:43:35.004Z,1.90
2019-05-30T14:46:24.206Z,2.20
2019-05-30T14:49:13.390Z,1.80
2019-05-30T14:52:02.032Z,1.60
2019-05-30T14:54:49.931Z,1.93
2019-05-30T14:57:39.047Z,1.93
2019-05-30T15:00:27.114Z,1.93
2019-05-30T15:03:16.197Z,1.80
2019-05-30T15:06:08.820Z,1.40
2019-05-30T15:08:56.131Z,2.10
2019-05-30T15:11:46.111Z,1.83
2019-05-30T15:14:36.413Z,2.13
2019-05-30T15:17:25.949Z,1.90
2019-05-30T15:20:15.162Z,2.23
2019-05-30T15:23:05.485Z,1.77
2019-05-30T15:25:54.564Z,1.83
2019-05-30T15:28:42.693Z,2.10
2019-05-30T15:31:32.319Z,1.80
2019-05-30T15:34:21.571Z,2.30
2019-05-30T15:37:10.779Z,2.47
2019-05-30T15:40:01.566Z,1.60
2019-05-30T15:42:53.176Z,2.10
2019-05-30T15:45:43.802Z,2.40
2019-05-30T15:48:32.751Z,1.60
2019-05-30T15:51:21.391Z,2.13
2019-05-30T15:54:10.804Z,2.30
2019-05-30T15:56:59.644Z,2.13
2019-05-30T15:59:47.851Z,2.00
2019-05-30T16:02:36.746Z,3.87
2019-05-30T16:05:27.023Z,2.43
2019-05-30T16:08:16.774Z,1.90
2019-05-30T16:11:05.952Z,1.90
2019-05-30T16:13:54.809Z,2.00
2019-05-30T16:16:43.191Z,1.50
2019-05-30T16:19:32.920Z,1.87
2019-05-30T16:22:22.646Z,1.87
2019-05-30T16:25:13.768Z,2.00
2019-05-30T16:28:02.760Z,2.03
2019-05-30T16:30:50.809Z,2.00
2019-05-30T16:33:40.475Z,1.50
2019-05-30T16:36:30.799Z,1.90
2019-05-30T16:39:20.347Z,1.43
2019-05-30T16:42:09.461Z,1.43
2019-05-30T16:44:58.244Z,1.90
2019-05-30T16:47:49.308Z,1.47
2019-05-30T16:50:37.752Z,2.10
2019-05-30T16:53:27.319Z,3.90
2019-05-30T16:56:17.344Z,2.17
2019-05-30T16:59:05.224Z,1.87
2019-05-30T17:01:57.692Z,2.07
2019-05-30T17:04:44.638Z,1.63
2019-05-30T17:07:33.472Z,2.07
2019-05-30T17:10:31.063Z,1.70
2019-05-30T17:13:15.631Z,1.60
2019-05-30T17:16:04.126Z,1.60
2019-05-30T17:18:53.955Z,1.53
2019-05-30T17:21:42.847Z,1.70
2019-05-30T17:24:32.063Z,1.40
2019-05-30T17:27:20.272Z,1.60
2019-05-30T17:30:11.787Z,1.60
2019-05-30T17:33:01.319Z,1.37
2019-05-30T17:35:51.349Z,1.93
2019-05-30T17:38:39.467Z,1.57
2019-05-30T17:41:29.235Z,1.90
2019-05-30T17:44:19.096Z,1.97
2019-05-30T17:47:09.556Z,1.53
2019-05-30T17:49:57.600Z,2.00
2019-05-30T17:52:46.316Z,2.10
2019-05-30T17:55:34.301Z,2.03
2019-05-30T17:58:23.882Z,1.97
2019-05-30T18:01:12.855Z,1.93
2019-05-30T18:04:03.483Z,2.23
2019-05-30T18:06:52.218Z,1.73
2019-05-30T18:09:43.223Z,1.90
2019-05-30T18:12:33.094Z,2.00
2019-05-30T18:15:24.880Z,1.87
2019-05-30T18:18:12.835Z,2.10
2019-05-30T18:21:01.530Z,1.97
2019-05-30T18:23:51.280Z,1.63
2019-05-30T18:26:40.290Z,2.40
2019-05-30T18:29:30.108Z,1.90
2019-05-30T18:32:18.950Z,1.80
2019-05-30T18:35:08.591Z,1.90
2019-05-30T18:37:57.004Z,2.03
2019-05-30T18:40:46.674Z,1.87
2019-05-30T18:43:36.566Z,1.93
2019-05-30T18:46:26.720Z,1.90
2019-05-30T18:49:15.200Z,1.87
2019-05-30T18:52:03.855Z,2.87
2019-05-30T18:54:52.726Z,2.40
2019-05-30T18:57:42.323Z,2.00
2019-05-30T19:00:31.232Z,2.60
2019-05-30T19:03:19.502Z,1.93
2019-05-30T19:06:09.169Z,2.77
2019-05-30T19:08:57.918Z,2.57
2019-05-30T19:11:47.583Z,2.30
2019-05-30T19:14:37.535Z,2.10
2019-05-30T19:17:27.692Z,2.63
2019-05-30T19:20:18.916Z,2.03
2019-05-30T19:23:07.820Z,2.30
2019-05-30T19:25:57.074Z,2.43
2019-05-30T19:28:45.314Z,2.00
2019-05-30T19:31:35.306Z,2.87
2019-05-30T19:34:23.510Z,2.70
2019-05-30T19:37:12.962Z,3.00
2019-05-30T19:40:02.342Z,2.70
2019-05-30T19:42:51.402Z,2.80
2019-05-30T19:45:40.303Z,3.20
2019-05-30T19:48:30.534Z,2.40
2019-05-30T19:51:21.111Z,2.63
2019-05-30T19:54:09.564Z,2.63
2019-05-30T19:57:00.461Z,2.60
2019-05-30T19:59:48.582Z,2.50
2019-05-30T20:02:38.190Z,2.57
2019-05-30T20:05:27.638Z,2.70
2019-05-30T20:08:16.671Z,2.60
2019-05-30T20:11:12.083Z,3.30
2019-05-30T20:14:00.967Z,2.70
2019-05-30T20:16:51.180Z,2.97
2019-05-30T20:19:44.240Z,2.70
2019-05-30T20:22:33.890Z,2.50
2019-05-30T20:25:23.610Z,2.40
2019-05-30T20:28:11.942Z,2.70
2019-05-30T20:31:00.579Z,2.40
2019-05-30T20:33:49.900Z,2.60
2019-05-30T20:36:40.599Z,2.87
2019-05-30T20:39:30.451Z,2.40
2019-05-30T20:42:19.910Z,2.43
2019-05-30T20:45:10.011Z,3.00
2019-05-30T20:47:59.209Z,2.87
2019-05-30T20:50:47.984Z,2.40
2019-05-30T20:53:36.993Z,2.70
2019-05-30T20:56:26.891Z,2.23
2019-05-30T20:59:15.686Z,2.40
2019-05-30T21:02:03.990Z,2.40
2019-05-30T21:04:52.586Z,2.63
2019-05-30T21:07:41.984Z,2.20
2019-05-30T21:10:31.439Z,2.30
2019-05-30T21:13:20.068Z,2.33
2019-05-30T21:16:10.365Z,2.70
2019-05-30T21:18:59.140Z,2.37
2019-05-30T21:21:47.651Z,2.27
2019-05-30T21:24:36.723Z,2.90
2019-05-30T21:27:25.042Z,2.60
2019-05-30T21:30:13.943Z,2.60
2019-05-30T21:33:02.944Z,3.27
2019-05-30T21:35:52.637Z,2.50
2019-05-30T21:38:41.934Z,2.97
2019-05-30T21:41:31.623Z,2.20
2019-05-30T21:44:24.370Z,2.40
2019-05-30T21:47:13.221Z,2.60
2019-05-30T21:50:01.532Z,3.00
2019-05-30T21:52:50.176Z,2.80
2019-05-30T21:55:39.537Z,3.00
2019-05-30T21:58:29.340Z,2.80
2019-05-30T22:01:30.342Z,3.77
2019-05-30T22:04:20.819Z,2.53
2019-05-30T22:07:09.124Z,3.17
2019-05-30T22:09:58.027Z,2.97
2019-05-30T22:12:47.548Z,3.00
2019-05-30T22:15:36.410Z,3.27
2019-05-30T22:18:26.251Z,3.17
2019-05-30T22:21:16.238Z,3.80
2019-05-30T22:24:05.830Z,3.00
2019-05-30T22:26:54.071Z,3.50
2019-05-30T22:29:42.251Z,3.60
2019-05-30T22:32:32.900Z,3.27
2019-05-30T22:35:21.959Z,3.37
2019-05-30T22:38:10.991Z,3.10
2019-05-30T22:41:00.230Z,3.50
2019-05-30T22:43:48.982Z,3.10
2019-05-30T22:46:38.545Z,3.43
2019-05-30T22:49:26.734Z,3.57
2019-05-30T22:52:15.479Z,3.60
2019-05-30T22:55:04.439Z,3.27
2019-05-30T22:57:53.395Z,3.07
2019-05-30T23:00:47.872Z,3.13
2019-05-30T23:03:36.200Z,3.30
2019-05-30T23:06:25.108Z,4.03
2019-05-30T23:09:13.420Z,3.50
2019-05-30T23:12:02.707Z,3.20
2019-05-30T23:14:52.270Z,3.50
2019-05-30T23:17:40.455Z,3.63
2019-05-30T23:20:28.470Z,2.90
2019-05-30T23:23:16.983Z,3.20
2019-05-30T23:26:06.258Z,3.60
2019-05-30T23:28:55.848Z,2.90
2019-05-30T23:31:45.467Z,3.20
2019-05-30T23:34:34.903Z,3.30
2019-05-30T23:37:24.095Z,3.50
2019-05-30T23:40:13.127Z,3.33
2019-05-30T23:43:02.650Z,3.27
2019-05-30T23:45:51.875Z,3.40
2019-05-30T23:48:40.592Z,3.30
2019-05-30T23:51:29.259Z,3.57
2019-05-30T23:54:17.597Z,3.80
2019-05-30T23:57:06.961Z,3.93
2019-05-30T23:59:54.871Z,2.90
